Concerto — JJ3855 — position and weather

sailwx.info

Track history (hours):
 
Tides and Currents Weather Stations Pressure Air Temp Water Temp Dewpoint Dewpoint Depression Visibility Wind Speed Wind Dir Waves Ship Positions

Concerto

Last reported at 2017-Nov-20 00:30 UTC. Time now 2017-Nov-22 01:59 UTC.
Position N 34°41' E 135°11'.

Length 74 m; draft 3 m.

Type: Passenger vessel. MMSI: 431000448.

Date/timePositionNaut miles runAvg speedWind from/ knotsBaromVisibWave heightAir tempDewpointWater temp
2017-Nov-20 00:30N 34°41' E 135°11'0 0.0
2017-Nov-20 00:00N 34°41' E 135°11'0 0.0
2017-Nov-19 23:24N 34°41' E 135°11'0 0.0
2017-Nov-19 23:00N 34°41' E 135°11'0 0.0
2017-Nov-19 22:30N 34°41' E 135°11'0 0.0
2017-Nov-19 22:00N 34°41' E 135°11'0 0.0
2017-Nov-19 21:30N 34°41' E 135°11'0 0.0
2017-Nov-19 21:00N 34°41' E 135°11'0 0.0
2017-Nov-19 20:24N 34°41' E 135°11'0 0.0
2017-Nov-19 20:00N 34°41' E 135°11'0 0.0
2017-Nov-19 19:24N 34°41' E 135°11'0 0.0
2017-Nov-19 18:54N 34°41' E 135°11'0 0.0
2017-Nov-19 18:30N 34°41' E 135°11'0 0.0
2017-Nov-19 18:00N 34°41' E 135°11'0 0.0
2017-Nov-19 17:30N 34°41' E 135°11'0 0.0
2017-Nov-19 17:00N 34°41' E 135°11'0 0.0
2017-Nov-19 16:30N 34°41' E 135°11'0 0.0
2017-Nov-19 16:00N 34°41' E 135°11'0 0.0
2017-Nov-19 15:30N 34°41' E 135°11'0 0.0
2017-Nov-19 15:00N 34°41' E 135°11'0 0.0
2017-Nov-19 14:30N 34°41' E 135°11'0 0.0
2017-Nov-19 14:00N 34°41' E 135°11'0 0.0
2017-Nov-19 13:24N 34°41' E 135°11'0 0.0
2017-Nov-19 13:00N 34°41' E 135°11'0 0.0
2017-Nov-19 12:30N 34°41' E 135°11'3 6.0
2017-Nov-19 12:00N 34°38' E 135°10'4 7.5
2017-Nov-19 11:30N 34°37' E 135°06'4 7.6
2017-Nov-19 11:00N 34°38' E 135°10'3 5.0
2017-Nov-19 10:30N 34°41' E 135°11'0 0.0
2017-Nov-19 09:57N 34°41' E 135°11'2 4.6
2017-Nov-19 09:30N 34°39' E 135°11'4 7.0
2017-Nov-19 09:00N 34°37' E 135°08'4 7.7
2017-Nov-19 08:30N 34°39' E 135°11'2 2.6
2017-Nov-19 07:55N 34°41' E 135°11'0 0.0
2017-Nov-19 07:25N 34°41' E 135°11'0 0.0
2017-Nov-19 06:55N 34°41' E 135°11'2 3.7
2017-Nov-19 06:30N 34°39' E 135°11'2 3.4
2017-Nov-19 06:00N 34°38' E 135°10'3 5.7
2017-Nov-19 05:30N 34°41' E 135°11'0 0.0
2017-Nov-19 05:00N 34°41' E 135°11'2 4.1
2017-Nov-19 04:30N 34°39' E 135°11'4 8.1
2017-Nov-19 04:00N 34°37' E 135°07'3 5.3
2017-Nov-19 03:30N 34°38' E 135°10'3 6.2
2017-Nov-19 03:00N 34°41' E 135°11'0 0.0
2017-Nov-19 02:30N 34°41' E 135°11'0 0.0
2017-Nov-19 01:57N 34°41' E 135°11'0 0.0
2017-Nov-19 01:21N 34°41' E 135°11'0 0.0
2017-Nov-19 00:57N 34°41' E 135°11'0 0.0
2017-Nov-19 00:27N 34°41' E 135°11'0 0.0
2017-Nov-18 23:57N 34°41' E 135°11'0 0.0
2017-Nov-18 23:15N 34°41' E 135°11'0 0.0
2017-Nov-18 22:21N 34°41' E 135°11'0 0.0
2017-Nov-18 21:57N 34°41' E 135°11'0 0.0
2017-Nov-18 21:27N 34°41' E 135°11'0 0.0
2017-Nov-18 20:57N 34°41' E 135°11'0 0.0
2017-Nov-18 20:27N 34°41' E 135°11'0 0.0
2017-Nov-18 19:57N 34°41' E 135°11'0 0.0
2017-Nov-18 19:27N 34°41' E 135°11'0 0.0
2017-Nov-18 18:51N 34°41' E 135°11'0 0.0
2017-Nov-18 18:21N 34°41' E 135°11'0 0.0
2017-Nov-18 17:57N 34°41' E 135°11'0 0.0
2017-Nov-18 17:27N 34°41' E 135°11'0 0.0
2017-Nov-18 16:57N 34°41' E 135°11'0 0.0
2017-Nov-18 16:03N 34°41' E 135°11'0 0.0
2017-Nov-18 15:57N 34°41' E 135°11'0 0.0
2017-Nov-18 15:27N 34°41' E 135°11'0 0.0
2017-Nov-18 14:57N 34°41' E 135°11'0 0.0
2017-Nov-18 14:27N 34°41' E 135°11'0 0.0
2017-Nov-18 13:45N 34°41' E 135°11'0 0.0
2017-Nov-18 13:27N 34°41' E 135°11'0 0.0
2017-Nov-18 12:51N 34°41' E 135°11'0 0.0
2017-Nov-18 12:28N 34°41' E 135°11'3 6.9
2017-Nov-18 12:00N 34°38' E 135°10'4 8.2
2017-Nov-18 11:30N 34°37' E 135°05'4 8.2
2017-Nov-18 10:59N 34°38' E 135°10'3 5.7
2017-Nov-18 10:30N 34°41' E 135°11'0 0.0
2017-Nov-18 09:58N 34°41' E 135°11'2 5.3
2017-Nov-18 09:30N 34°38' E 135°11'3 7.1
2017-Nov-18 09:00N 34°37' E 135°07'4 8.3
2017-Nov-18 08:29N 34°39' E 135°11'1 2.5
2017-Nov-18 07:58N 34°41' E 135°11'0 0.0
2017-Nov-18 07:28N 34°41' E 135°11'0 0.0
2017-Nov-18 06:58N 34°41' E 135°11'2 4.7
2017-Nov-18 06:31N 34°39' E 135°11'2 3.1
2017-Nov-18 06:01N 34°38' E 135°10'3 6.4
2017-Nov-18 05:30N 34°41' E 135°11'0 0.0
2017-Nov-18 04:51N 34°41' E 135°11'2 5.2
2017-Nov-18 04:30N 34°39' E 135°11'3 6.9
2017-Nov-18 04:00N 34°37' E 135°08'2 3.6
2017-Nov-18 03:30N 34°38' E 135°10'3 6.2
2017-Nov-18 03:00N 34°41' E 135°11'0 0.0
2017-Nov-18 02:30N 34°41' E 135°11'0 0.0
2017-Nov-18 02:00N 34°41' E 135°11'0 0.0
2017-Nov-18 01:25N 34°41' E 135°11'0 0.0
2017-Nov-18 00:55N 34°41' E 135°11'0 0.0
2017-Nov-18 00:25N 34°41' E 135°11'0 0.0
2017-Nov-17 23:55N 34°41' E 135°11'0 0.0
2017-Nov-17 23:25N 34°41' E 135°11'0 0.0
2017-Nov-17 22:55N 34°41' E 135°11'0 0.0
2017-Nov-17 22:25N 34°41' E 135°11'0 0.0
2017-Nov-17 21:55N 34°41' E 135°11'0 0.0
2017-Nov-17 21:25N 34°41' E 135°11'0 0.0
2017-Nov-17 20:49N 34°41' E 135°11'0 0.0
2017-Nov-17 20:25N 34°41' E 135°11'0 0.0
2017-Nov-17 19:55N 34°41' E 135°11'0 0.0
2017-Nov-17 19:07N 34°41' E 135°11'0 0.0
2017-Nov-17 18:55N 34°41' E 135°11'0 0.0
2017-Nov-17 18:25N 34°41' E 135°11'0 0.0
2017-Nov-17 17:55N 34°41' E 135°11'0 0.0
2017-Nov-17 17:19N 34°41' E 135°11'0 0.0
2017-Nov-17 16:55N 34°41' E 135°11'0 0.0
2017-Nov-17 16:25N 34°41' E 135°11'0 0.0
2017-Nov-17 15:55N 34°41' E 135°11'0 0.0
2017-Nov-17 15:25N 34°41' E 135°11'0 0.0
2017-Nov-17 14:43N 34°41' E 135°11'0 0.0
2017-Nov-17 14:25N 34°41' E 135°11'0 0.0
2017-Nov-17 13:55N 34°41' E 135°11'0 0.0
2017-Nov-17 13:25N 34°41' E 135°11'0 0.0
2017-Nov-17 12:55N 34°41' E 135°11'0 0.0
2017-Nov-17 12:26N 34°41' E 135°11'3 6.7
2017-Nov-17 12:00N 34°38' E 135°10'4 8.7
2017-Nov-17 11:30N 34°37' E 135°05'4 7.9
2017-Nov-17 11:00N 34°38' E 135°10'3 5.6
2017-Nov-17 10:30N 34°41' E 135°11'0 0.0
2017-Nov-17 09:56N 34°41' E 135°11'2 5.7
2017-Nov-17 09:30N 34°38' E 135°11'3 6.0
2017-Nov-17 09:00N 34°37' E 135°07'4 8.0
2017-Nov-17 08:30N 34°40' E 135°11'1 2.0
2017-Nov-17 07:56N 34°41' E 135°11'0 0.0
2017-Nov-17 07:26N 34°41' E 135°11'0 0.0
2017-Nov-17 06:57N 34°41' E 135°11'2 4.6
2017-Nov-17 06:30N 34°39' E 135°11'1 2.4
2017-Nov-17 06:00N 34°38' E 135°10'3 6.0
2017-Nov-17 05:30N 34°41' E 135°11'0 0.0
2017-Nov-17 04:57N 34°41' E 135°11'2 4.7
2017-Nov-17 04:30N 34°39' E 135°11'4 7.9
2017-Nov-17 04:01N 34°37' E 135°07'3 5.4
2017-Nov-17 03:30N 34°38' E 135°10'3 5.8
2017-Nov-17 03:00N 34°41' E 135°11'0 0.0
2017-Nov-17 02:30N 34°41' E 135°11'0 0.0
2017-Nov-17 02:00N 34°41' E 135°11'0 0.0
2017-Nov-17 01:29N 34°41' E 135°11'0 0.0
2017-Nov-17 00:59N 34°41' E 135°11'0 0.0
2017-Nov-17 00:29N 34°41' E 135°11'0 0.0
2017-Nov-16 23:47N 34°41' E 135°11'0 0.0
2017-Nov-16 23:29N 34°41' E 135°11'0 0.0
2017-Nov-16 22:47N 34°41' E 135°11'0 0.0
2017-Nov-16 21:41N 34°41' E 135°11'0 0.0
2017-Nov-16 21:29N 34°41' E 135°11'0 0.0
2017-Nov-16 20:53N 34°41' E 135°11'0 0.0
2017-Nov-16 20:29N 34°41' E 135°11'0 0.0
2017-Nov-16 19:53N 34°41' E 135°11'0 0.0
2017-Nov-16 19:29N 34°41' E 135°11'0 0.0
2017-Nov-16 18:59N 34°41' E 135°11'0 0.0
2017-Nov-16 18:29N 34°41' E 135°11'0 0.0
2017-Nov-16 17:59N 34°41' E 135°11'0 0.0
2017-Nov-16 17:23N 34°41' E 135°11'0 0.0
2017-Nov-16 16:59N 34°41' E 135°11'0 0.0
2017-Nov-16 16:29N 34°41' E 135°11'0 0.0
2017-Nov-16 15:47N 34°41' E 135°11'0 0.0
2017-Nov-16 15:29N 34°41' E 135°11'0 0.0
2017-Nov-16 14:23N 34°41' E 135°11'0 0.0
2017-Nov-16 13:59N 34°41' E 135°11'0 0.0
2017-Nov-16 13:23N 34°41' E 135°11'0 0.0
2017-Nov-16 12:47N 34°41' E 135°11'0 0.0
2017-Nov-16 12:24N 34°41' E 135°11'3 6.5
2017-Nov-16 12:00N 34°38' E 135°11'4 8.0
2017-Nov-16 11:30N 34°37' E 135°07'3 5.5
2017-Nov-16 11:00N 34°38' E 135°09'3 6.2
2017-Nov-16 10:30N 34°41' E 135°11'0 0.0
2017-Nov-16 09:57N 34°41' E 135°11'2 4.7
2017-Nov-16 09:30N 34°39' E 135°11'4 7.1
2017-Nov-16 09:00N 34°37' E 135°07'4 8.2
2017-Nov-16 08:30N 34°39' E 135°11'1 2.1
2017-Nov-16 07:52N 34°41' E 135°11'0 0.0
2017-Nov-16 07:22N 34°41' E 135°11'0 0.0
2017-Nov-16 06:58N 34°41' E 135°11'3 6.4
2017-Nov-16 06:30N 34°38' E 135°10'0 0.4
2017-Nov-16 06:00N 34°38' E 135°10'3 5.8
2017-Nov-16 05:30N 34°41' E 135°11'0 0.0
2017-Nov-16 04:53N 34°41' E 135°11'2 5.9
2017-Nov-16 04:30N 34°39' E 135°11'4 8.7
2017-Nov-16 04:00N 34°37' E 135°06'3 6.2
2017-Nov-16 03:30N 34°38' E 135°10'3 5.5
2017-Nov-16 03:00N 34°41' E 135°11'0 0.0
2017-Nov-16 02:10N 34°41' E 135°11'0 0.0
2017-Nov-16 01:58N 34°41' E 135°11'0 0.0
2017-Nov-16 01:28N 34°41' E 135°11'0 0.0
2017-Nov-16 00:52N 34°41' E 135°11'0 0.0
2017-Nov-16 00:28N 34°41' E 135°11'0 0.0
2017-Nov-15 23:46N 34°41' E 135°11'0 0.0
2017-Nov-15 23:28N 34°41' E 135°11'0 0.0
2017-Nov-15 22:58N 34°41' E 135°11'0 0.0
2017-Nov-15 22:28N 34°41' E 135°11'0 0.0
2017-Nov-15 21:58N 34°41' E 135°11'0 0.0
2017-Nov-15 21:22N 34°41' E 135°11'0 0.0
2017-Nov-15 20:58N 34°41' E 135°11'0 0.0
2017-Nov-15 20:22N 34°41' E 135°11'0 0.0
2017-Nov-15 19:58N 34°41' E 135°11'0 0.0
2017-Nov-15 19:28N 34°41' E 135°11'0 0.0
2017-Nov-15 18:52N 34°41' E 135°11'0 0.0
2017-Nov-15 18:22N 34°41' E 135°11'0 0.0
2017-Nov-15 17:58N 34°41' E 135°11'0 0.0
2017-Nov-15 17:28N 34°41' E 135°11'0 0.0
2017-Nov-15 16:46N 34°41' E 135°11'0 0.0
2017-Nov-15 16:28N 34°41' E 135°11'0 0.0
2017-Nov-15 15:58N 34°41' E 135°11'0 0.0
2017-Nov-15 15:28N 34°41' E 135°11'0 0.0
2017-Nov-15 14:58N 34°41' E 135°11'0 0.0
2017-Nov-15 14:28N 34°41' E 135°11'0 0.0
2017-Nov-15 13:58N 34°41' E 135°11'0 0.0
2017-Nov-15 13:28N 34°41' E 135°11'0 0.0
2017-Nov-15 12:58N 34°41' E 135°11'0 0.0
2017-Nov-15 12:28N 34°41' E 135°11'2 5.1
2017-Nov-15 12:00N 34°38' E 135°11'4 7.5
2017-Nov-15 11:31N 34°37' E 135°07'2 4.2
2017-Nov-15 11:01N 34°38' E 135°09'3 6.7
2017-Nov-15 10:31N 34°41' E 135°11'0 0.0
2017-Nov-15 10:00N 34°41' E 135°11'2 5.1
2017-Nov-15 09:30N 34°38' E 135°11'4 7.0
2017-Nov-15 09:00N 34°37' E 135°07'4 8.5
2017-Nov-15 08:30N 34°39' E 135°11'1 2.7
2017-Nov-15 07:59N 34°41' E 135°11'0 0.0
2017-Nov-15 07:29N 34°41' E 135°11'0 0.0
2017-Nov-15 06:59N 34°41' E 135°11'2 5.2
2017-Nov-15 06:30N 34°38' E 135°11'1 2.3
2017-Nov-15 06:00N 34°38' E 135°10'3 5.5
2017-Nov-15 05:30N 34°41' E 135°11'0 0.0
2017-Nov-15 04:56N 34°41' E 135°11'2 4.8
2017-Nov-15 04:29N 34°39' E 135°11'4 7.8
2017-Nov-15 04:00N 34°37' E 135°07'2 4.7
2017-Nov-15 03:30N 34°38' E 135°10'3 5.9
2017-Nov-15 03:00N 34°41' E 135°11'0 0.0
2017-Nov-15 02:29N 34°41' E 135°11'0 0.0
2017-Nov-15 01:59N 34°41' E 135°11'0 0.0
2017-Nov-15 01:23N 34°41' E 135°11'0 0.0
2017-Nov-15 00:53N 34°41' E 135°11'0 0.0
2017-Nov-15 00:29N 34°41' E 135°11'0 0.0
2017-Nov-14 23:59N 34°41' E 135°11'0 0.0
2017-Nov-14 23:29N 34°41' E 135°11'0 0.0
2017-Nov-14 22:59N 34°41' E 135°11'0 0.0
2017-Nov-14 22:29N 34°41' E 135°11'0 0.0
2017-Nov-14 21:53N 34°41' E 135°11'0 0.0
2017-Nov-14 21:23N 34°41' E 135°11'0 0.0
2017-Nov-14 20:59N 34°41' E 135°11'0 0.0
2017-Nov-14 20:29N 34°41' E 135°11'0 0.0
2017-Nov-14 19:41N 34°41' E 135°11'0 0.0
2017-Nov-14 19:23N 34°41' E 135°11'0 0.0
2017-Nov-14 18:59N 34°41' E 135°11'0 0.0
2017-Nov-14 18:29N 34°41' E 135°11'0 0.0
2017-Nov-14 17:53N 34°41' E 135°11'0 0.0
2017-Nov-14 17:29N 34°41' E 135°11'0 0.0
2017-Nov-14 16:59N 34°41' E 135°11'0 0.0
2017-Nov-14 16:29N 34°41' E 135°11'0 0.0
2017-Nov-14 15:59N 34°41' E 135°11'0 0.0
2017-Nov-14 15:23N 34°41' E 135°11'0 0.0
2017-Nov-14 14:59N 34°41' E 135°11'0 0.0
2017-Nov-14 14:29N 34°41' E 135°11'0 0.0
2017-Nov-14 13:59N 34°41' E 135°11'0 0.0
2017-Nov-14 13:29N 34°41' E 135°11'0 0.0
2017-Nov-14 12:59N 34°41' E 135°11'0 0.0
2017-Nov-14 12:29N 34°41' E 135°11'2 5.1
2017-Nov-14 12:00N 34°38' E 135°11'4 8.0
2017-Nov-14 11:30N 34°37' E 135°07'3 5.3
2017-Nov-14 11:00N 34°38' E 135°10'3 6.0
2017-Nov-14 10:30N 34°41' E 135°11'0 0.0
2017-Nov-14 09:56N 34°41' E 135°11'3 6.4
2017-Nov-14 09:30N 34°38' E 135°10'3 6.5
2017-Nov-14 09:00N 34°37' E 135°07'4 8.8
2017-Nov-14 08:30N 34°39' E 135°11'1 2.1
2017-Nov-14 07:50N 34°41' E 135°11'0 0.0
2017-Nov-14 07:08N 34°41' E 135°11'0 0.0
2017-Nov-14 06:57N 34°41' E 135°11'3 6.5
2017-Nov-14 06:31N 34°38' E 135°11'1 1.9
2017-Nov-14 06:00N 34°38' E 135°10'3 5.8
2017-Nov-14 05:30N 34°41' E 135°11'0 0.0
2017-Nov-14 04:52N 34°41' E 135°11'2 5.8
2017-Nov-14 04:30N 34°39' E 135°11'4 7.3
2017-Nov-14 04:00N 34°37' E 135°07'2 4.4
2017-Nov-14 03:30N 34°38' E 135°10'3 5.9
2017-Nov-14 03:00N 34°41' E 135°11'0 0.0
2017-Nov-14 02:28N 34°41' E 135°11'0 0.0
2017-Nov-14 01:58N 34°41' E 135°11'0 0.0
2017-Nov-14 01:22N 34°41' E 135°11'0 0.0
2017-Nov-14 00:58N 34°41' E 135°11'0 0.0
2017-Nov-14 00:28N 34°41' E 135°11'0 0.0
2017-Nov-13 23:58N 34°41' E 135°11'0 0.0
2017-Nov-13 23:22N 34°41' E 135°11'0 0.0
2017-Nov-13 22:58N 34°41' E 135°11'0 0.0
2017-Nov-13 22:16N 34°41' E 135°11'0 0.0
2017-Nov-13 21:52N 34°41' E 135°11'0 0.0
2017-Nov-13 01:49N 34°41' E 135°11'0 0.0
2017-Nov-13 01:25N 34°41' E 135°11'0 0.0
2017-Nov-13 00:55N 34°41' E 135°11'0 0.0
2017-Nov-13 00:25N 34°41' E 135°11'0 0.0
2017-Nov-12 23:55N 34°41' E 135°11'0 0.0
2017-Nov-12 23:25N 34°41' E 135°11'0 0.0
2017-Nov-12 22:43N 34°41' E 135°11'0 0.0
2017-Nov-12 22:25N 34°41' E 135°11'0 0.0
2017-Nov-12 21:55N 34°41' E 135°11'0 0.0
2017-Nov-12 21:19N 34°41' E 135°11'0 0.0
2017-Nov-12 20:55N 34°41' E 135°11'0 0.0
2017-Nov-12 20:25N 34°41' E 135°11'0 0.0
2017-Nov-12 19:55N 34°41' E 135°11'0 0.0
2017-Nov-12 19:25N 34°41' E 135°11'0 0.0
2017-Nov-12 18:55N 34°41' E 135°11'0 0.0
2017-Nov-12 18:19N 34°41' E 135°11'0 0.0
2017-Nov-12 17:55N 34°41' E 135°11'0 0.0
2017-Nov-12 17:13N 34°41' E 135°11'0 0.0
2017-Nov-12 16:55N 34°41' E 135°11'0 0.0
2017-Nov-12 16:25N 34°41' E 135°11'0 0.0
2017-Nov-12 15:55N 34°41' E 135°11'0 0.0
2017-Nov-12 15:25N 34°41' E 135°11'0 0.0
2017-Nov-12 14:55N 34°41' E 135°11'0 0.0
2017-Nov-12 14:25N 34°41' E 135°11'0 0.0
2017-Nov-12 13:55N 34°41' E 135°11'0 0.0
2017-Nov-12 13:25N 34°41' E 135°11'0 0.0
2017-Nov-12 12:55N 34°41' E 135°11'0 0.0
2017-Nov-12 12:26N 34°41' E 135°11'3 6.2
2017-Nov-12 12:00N 34°38' E 135°11'3 6.6
2017-Nov-12 11:30N 34°37' E 135°07'2 4.4
2017-Nov-12 11:00N 34°38' E 135°10'3 6.5
2017-Nov-12 10:30N 34°41' E 135°11'0 0.0
2017-Nov-12 09:59N 34°41' E 135°11'0 0.0
2017-Nov-12 09:23N 34°41' E 135°11'0 0.0
2017-Nov-12 08:59N 34°41' E 135°11'3 5.4
2017-Nov-12 08:30N 34°38' E 135°11'4 8.6
2017-Nov-12 08:00N 34°37' E 135°06'0 0.4
2017-Nov-12 07:30N 34°37' E 135°06'4 8.3
2017-Nov-12 07:00N 34°38' E 135°11'3 5.1
2017-Nov-12 06:30N 34°41' E 135°11'0 0.0
2017-Nov-12 05:50N 34°41' E 135°11'0 0.0
2017-Nov-12 05:26N 34°41' E 135°11'0 0.0
2017-Nov-12 04:51N 34°41' E 135°11'2 5.9
2017-Nov-12 04:30N 34°39' E 135°11'3 6.9
2017-Nov-12 04:00N 34°37' E 135°08'2 4.2
2017-Nov-12 03:30N 34°38' E 135°10'3 6.0
2017-Nov-12 03:00N 34°41' E 135°11'0 0.0
2017-Nov-12 02:30N 34°41' E 135°11'0 0.0
2017-Nov-12 01:54N 34°41' E 135°11'0 0.0
2017-Nov-12 01:24N 34°41' E 135°11'0 0.0
2017-Nov-12 01:00N 34°41' E 135°11'0 0.0
2017-Nov-12 00:30N 34°41' E 135°11'0 0.0
2017-Nov-12 00:00N 34°41' E 135°11'0 0.0
2017-Nov-11 23:30N 34°41' E 135°11'0 0.0
2017-Nov-11 23:00N 34°41' E 135°11'0 0.0
2017-Nov-11 22:24N 34°41' E 135°11'0 0.0
2017-Nov-11 21:54N 34°41' E 135°11'0 0.0
2017-Nov-11 21:30N 34°41' E 135°11'0 0.0
2017-Nov-11 21:00N 34°41' E 135°11'0 0.0
2017-Nov-11 20:24N 34°41' E 135°11'0 0.0
2017-Nov-11 19:48N 34°41' E 135°11'0 0.0
2017-Nov-11 19:30N 34°41' E 135°11'0 0.0
2017-Nov-11 19:00N 34°41' E 135°11'0 0.0
2017-Nov-11 18:18N 34°41' E 135°11'0 0.0
2017-Nov-11 18:00N 34°41' E 135°11'0 0.0
2017-Nov-11 17:30N 34°41' E 135°11'0 0.0
2017-Nov-11 17:00N 34°41' E 135°11'0 0.0
2017-Nov-11 16:24N 34°41' E 135°11'0 0.0
2017-Nov-11 16:00N 34°41' E 135°11'0 0.0
2017-Nov-11 15:30N 34°41' E 135°11'0 0.0
2017-Nov-11 15:00N 34°41' E 135°11'0 0.0
2017-Nov-11 14:30N 34°41' E 135°11'0 0.0
2017-Nov-11 13:54N 34°41' E 135°11'0 0.0
2017-Nov-11 13:30N 34°41' E 135°11'0 0.0
2017-Nov-11 12:54N 34°41' E 135°11'0 0.0
2017-Nov-11 12:30N 34°41' E 135°11'3 5.2
2017-Nov-11 12:00N 34°38' E 135°11'3 5.9
2017-Nov-11 11:30N 34°37' E 135°08'4 7.8
2017-Nov-11 11:00N 34°39' E 135°11'1 3.0
2017-Nov-11 10:30N 34°41' E 135°11'0 0.0
2017-Nov-11 09:58N 34°41' E 135°11'2 4.8
2017-Nov-11 09:30N 34°39' E 135°11'3 6.9
2017-Nov-11 09:00N 34°37' E 135°07'4 8.0
2017-Nov-11 08:30N 34°40' E 135°11'1 2.3
2017-Nov-11 07:58N 34°41' E 135°11'0 0.0
2017-Nov-11 07:10N 34°41' E 135°11'0 0.0
2017-Nov-11 06:58N 34°41' E 135°11'2 5.3
2017-Nov-11 06:30N 34°38' E 135°11'0 0.5
2017-Nov-11 06:00N 34°39' E 135°11'2 4.4
2017-Nov-11 05:30N 34°41' E 135°11'0 0.0
2017-Nov-11 05:00N 34°41' E 135°11'2 4.6
2017-Nov-11 04:30N 34°39' E 135°11'4 8.3
2017-Nov-11 04:00N 34°37' E 135°07'3 6.1
2017-Nov-11 03:30N 34°38' E 135°10'3 5.4
2017-Nov-11 02:58N 34°41' E 135°11'0 0.0
2017-Nov-11 02:28N 34°41' E 135°11'0 0.0
2017-Nov-11 01:58N 34°41' E 135°11'0 0.0
2017-Nov-11 01:28N 34°41' E 135°11'0 0.0
2017-Nov-11 00:58N 34°41' E 135°11'0 0.0
2017-Nov-11 00:28N 34°41' E 135°11'0 0.0
2017-Nov-10 23:46N 34°41' E 135°11'0 0.0
2017-Nov-10 23:28N 34°41' E 135°11'0 0.0
2017-Nov-10 22:58N 34°41' E 135°11'0 0.0
2017-Nov-10 22:28N 34°41' E 135°11'0 0.0
2017-Nov-10 21:58N 34°41' E 135°11'0 0.0
2017-Nov-10 21:28N 34°41' E 135°11'0 0.0
2017-Nov-10 20:58N 34°41' E 135°11'0 0.0
2017-Nov-10 20:28N 34°41' E 135°11'0 0.0
2017-Nov-10 19:58N 34°41' E 135°11'0 0.0
2017-Nov-10 19:28N 34°41' E 135°11'0 0.0
2017-Nov-10 18:58N 34°41' E 135°11'0 0.0
2017-Nov-10 18:22N 34°41' E 135°11'0 0.0
2017-Nov-10 17:46N 34°41' E 135°11'0 0.0
2017-Nov-10 17:28N 34°41' E 135°11'0 0.0
2017-Nov-10 16:52N 34°41' E 135°11'0 0.0
2017-Nov-10 16:28N 34°41' E 135°11'0 0.0
2017-Nov-10 15:58N 34°41' E 135°11'0 0.0
2017-Nov-10 15:28N 34°41' E 135°11'0 0.0
2017-Nov-10 14:58N 34°41' E 135°11'0 0.0
2017-Nov-10 14:28N 34°41' E 135°11'0 0.0
2017-Nov-10 13:58N 34°41' E 135°11'0 0.0
2017-Nov-10 13:10N 34°41' E 135°11'0 0.0
2017-Nov-10 12:58N 34°41' E 135°11'0 0.0
2017-Nov-10 12:28N 34°41' E 135°11'2 5.1
2017-Nov-10 12:01N 34°38' E 135°11'4 7.8
2017-Nov-10 11:30N 34°37' E 135°07'3 5.0
2017-Nov-10 11:00N 34°38' E 135°09'3 6.1
2017-Nov-10 10:30N 34°41' E 135°11'0 0.0
2017-Nov-10 09:54N 34°41' E 135°11'3 6.4
2017-Nov-10 09:30N 34°38' E 135°11'3 6.9
2017-Nov-10 09:00N 34°37' E 135°07'4 8.5
2017-Nov-10 08:31N 34°39' E 135°11'1 2.9
2017-Nov-10 08:01N 34°41' E 135°11'0 0.0
2017-Nov-10 07:29N 34°41' E 135°11'0 0.0
2017-Nov-10 06:54N 34°41' E 135°11'3 6.4
2017-Nov-10 06:30N 34°38' E 135°11'1 2.5
2017-Nov-10 06:00N 34°38' E 135°09'3 6.0
2017-Nov-10 05:29N 34°41' E 135°11'0 0.0
2017-Nov-10 04:50N 34°41' E 135°11'2 5.5
2017-Nov-10 04:31N 34°39' E 135°11'3 6.9
2017-Nov-10 04:00N 34°37' E 135°08'2 3.5
2017-Nov-10 03:30N 34°38' E 135°09'3 5.9
2017-Nov-10 03:00N 34°41' E 135°11'0 0.0
2017-Nov-10 02:31N 34°41' E 135°11'0 0.0
2017-Nov-10 02:01N 34°41' E 135°11'0 0.0
2017-Nov-10 01:30N 34°41' E 135°11'0 0.0
2017-Nov-10 00:58N 34°41' E 135°11'  
Track history (hours):
 
Tides and Currents Weather Stations Pressure Air Temp Water Temp Dewpoint Dewpoint Depression Visibility Wind Speed Wind Dir Waves Ship Positions

Concerto

Last reported at 2017-Nov-20 00:30 UTC. Time now 2017-Nov-22 01:59 UTC.
Position N 34°41' E 135°11'.

Length 74 m; draft 3 m.

Type: Passenger vessel. MMSI: 431000448.

Date/timePositionNaut miles runAvg speedWind from/ knotsBaromVisibWave heightAir tempDewpointWater temp
2017-Nov-20 00:30N 34°41' E 135°11'0 0.0
2017-Nov-20 00:00N 34°41' E 135°11'0 0.0
2017-Nov-19 23:24N 34°41' E 135°11'0 0.0
2017-Nov-19 23:00N 34°41' E 135°11'0 0.0
2017-Nov-19 22:30N 34°41' E 135°11'0 0.0
2017-Nov-19 22:00N 34°41' E 135°11'0 0.0
2017-Nov-19 21:30N 34°41' E 135°11'0 0.0
2017-Nov-19 21:00N 34°41' E 135°11'0 0.0
2017-Nov-19 20:24N 34°41' E 135°11'0 0.0
2017-Nov-19 20:00N 34°41' E 135°11'0 0.0
2017-Nov-19 19:24N 34°41' E 135°11'0 0.0
2017-Nov-19 18:54N 34°41' E 135°11'0 0.0
2017-Nov-19 18:30N 34°41' E 135°11'0 0.0
2017-Nov-19 18:00N 34°41' E 135°11'0 0.0
2017-Nov-19 17:30N 34°41' E 135°11'0 0.0
2017-Nov-19 17:00N 34°41' E 135°11'0 0.0
2017-Nov-19 16:30N 34°41' E 135°11'0 0.0
2017-Nov-19 16:00N 34°41' E 135°11'0 0.0
2017-Nov-19 15:30N 34°41' E 135°11'0 0.0
2017-Nov-19 15:00N 34°41' E 135°11'0 0.0
2017-Nov-19 14:30N 34°41' E 135°11'0 0.0
2017-Nov-19 14:00N 34°41' E 135°11'0 0.0
2017-Nov-19 13:24N 34°41' E 135°11'0 0.0
2017-Nov-19 13:00N 34°41' E 135°11'0 0.0
2017-Nov-19 12:30N 34°41' E 135°11'3 6.0
2017-Nov-19 12:00N 34°38' E 135°10'4 7.5
2017-Nov-19 11:30N 34°37' E 135°06'4 7.6
2017-Nov-19 11:00N 34°38' E 135°10'3 5.0
2017-Nov-19 10:30N 34°41' E 135°11'0 0.0
2017-Nov-19 09:57N 34°41' E 135°11'2 4.6
2017-Nov-19 09:30N 34°39' E 135°11'4 7.0
2017-Nov-19 09:00N 34°37' E 135°08'4 7.7
2017-Nov-19 08:30N 34°39' E 135°11'2 2.6
2017-Nov-19 07:55N 34°41' E 135°11'0 0.0
2017-Nov-19 07:25N 34°41' E 135°11'0 0.0
2017-Nov-19 06:55N 34°41' E 135°11'2 3.7
2017-Nov-19 06:30N 34°39' E 135°11'2 3.4
2017-Nov-19 06:00N 34°38' E 135°10'3 5.7
2017-Nov-19 05:30N 34°41' E 135°11'0 0.0
2017-Nov-19 05:00N 34°41' E 135°11'2 4.1
2017-Nov-19 04:30N 34°39' E 135°11'4 8.1
2017-Nov-19 04:00N 34°37' E 135°07'3 5.3
2017-Nov-19 03:30N 34°38' E 135°10'3 6.2
2017-Nov-19 03:00N 34°41' E 135°11'0 0.0
2017-Nov-19 02:30N 34°41' E 135°11'0 0.0
2017-Nov-19 01:57N 34°41' E 135°11'0 0.0
2017-Nov-19 01:21N 34°41' E 135°11'0 0.0
2017-Nov-19 00:57N 34°41' E 135°11'0 0.0
2017-Nov-19 00:27N 34°41' E 135°11'0 0.0
2017-Nov-18 23:57N 34°41' E 135°11'0 0.0
2017-Nov-18 23:15N 34°41' E 135°11'0 0.0
2017-Nov-18 22:21N 34°41' E 135°11'0 0.0
2017-Nov-18 21:57N 34°41' E 135°11'0 0.0
2017-Nov-18 21:27N 34°41' E 135°11'0 0.0
2017-Nov-18 20:57N 34°41' E 135°11'0 0.0
2017-Nov-18 20:27N 34°41' E 135°11'0 0.0
2017-Nov-18 19:57N 34°41' E 135°11'0 0.0
2017-Nov-18 19:27N 34°41' E 135°11'0 0.0
2017-Nov-18 18:51N 34°41' E 135°11'0 0.0
2017-Nov-18 18:21N 34°41' E 135°11'0 0.0
2017-Nov-18 17:57N 34°41' E 135°11'0 0.0
2017-Nov-18 17:27N 34°41' E 135°11'0 0.0
2017-Nov-18 16:57N 34°41' E 135°11'0 0.0
2017-Nov-18 16:03N 34°41' E 135°11'0 0.0
2017-Nov-18 15:57N 34°41' E 135°11'0 0.0
2017-Nov-18 15:27N 34°41' E 135°11'0 0.0
2017-Nov-18 14:57N 34°41' E 135°11'0 0.0
2017-Nov-18 14:27N 34°41' E 135°11'0 0.0
2017-Nov-18 13:45N 34°41' E 135°11'0 0.0
2017-Nov-18 13:27N 34°41' E 135°11'0 0.0
2017-Nov-18 12:51N 34°41' E 135°11'0 0.0
2017-Nov-18 12:28N 34°41' E 135°11'3 6.9
2017-Nov-18 12:00N 34°38' E 135°10'4 8.2
2017-Nov-18 11:30N 34°37' E 135°05'4 8.2
2017-Nov-18 10:59N 34°38' E 135°10'3 5.7
2017-Nov-18 10:30N 34°41' E 135°11'0 0.0
2017-Nov-18 09:58N 34°41' E 135°11'2 5.3
2017-Nov-18 09:30N 34°38' E 135°11'3 7.1
2017-Nov-18 09:00N 34°37' E 135°07'4 8.3
2017-Nov-18 08:29N 34°39' E 135°11'1 2.5
2017-Nov-18 07:58N 34°41' E 135°11'0 0.0
2017-Nov-18 07:28N 34°41' E 135°11'0 0.0
2017-Nov-18 06:58N 34°41' E 135°11'2 4.7
2017-Nov-18 06:31N 34°39' E 135°11'2 3.1
2017-Nov-18 06:01N 34°38' E 135°10'3 6.4
2017-Nov-18 05:30N 34°41' E 135°11'0 0.0
2017-Nov-18 04:51N 34°41' E 135°11'2 5.2
2017-Nov-18 04:30N 34°39' E 135°11'3 6.9
2017-Nov-18 04:00N 34°37' E 135°08'2 3.6
2017-Nov-18 03:30N 34°38' E 135°10'3 6.2
2017-Nov-18 03:00N 34°41' E 135°11'0 0.0
2017-Nov-18 02:30N 34°41' E 135°11'0 0.0
2017-Nov-18 02:00N 34°41' E 135°11'0 0.0
2017-Nov-18 01:25N 34°41' E 135°11'0 0.0
2017-Nov-18 00:55N 34°41' E 135°11'0 0.0
2017-Nov-18 00:25N 34°41' E 135°11'0 0.0
2017-Nov-17 23:55N 34°41' E 135°11'0 0.0
2017-Nov-17 23:25N 34°41' E 135°11'0 0.0
2017-Nov-17 22:55N 34°41' E 135°11'0 0.0
2017-Nov-17 22:25N 34°41' E 135°11'0 0.0
2017-Nov-17 21:55N 34°41' E 135°11'0 0.0
2017-Nov-17 21:25N 34°41' E 135°11'0 0.0
2017-Nov-17 20:49N 34°41' E 135°11'0 0.0
2017-Nov-17 20:25N 34°41' E 135°11'0 0.0
2017-Nov-17 19:55N 34°41' E 135°11'0 0.0
2017-Nov-17 19:07N 34°41' E 135°11'0 0.0
2017-Nov-17 18:55N 34°41' E 135°11'0 0.0
2017-Nov-17 18:25N 34°41' E 135°11'0 0.0
2017-Nov-17 17:55N 34°41' E 135°11'0 0.0
2017-Nov-17 17:19N 34°41' E 135°11'0 0.0
2017-Nov-17 16:55N 34°41' E 135°11'0 0.0
2017-Nov-17 16:25N 34°41' E 135°11'0 0.0
2017-Nov-17 15:55N 34°41' E 135°11'0 0.0
2017-Nov-17 15:25N 34°41' E 135°11'0 0.0
2017-Nov-17 14:43N 34°41' E 135°11'0 0.0
2017-Nov-17 14:25N 34°41' E 135°11'0 0.0
2017-Nov-17 13:55N 34°41' E 135°11'0 0.0
2017-Nov-17 13:25N 34°41' E 135°11'0 0.0
2017-Nov-17 12:55N 34°41' E 135°11'0 0.0
2017-Nov-17 12:26N 34°41' E 135°11'3 6.7
2017-Nov-17 12:00N 34°38' E 135°10'4 8.7
2017-Nov-17 11:30N 34°37' E 135°05'4 7.9
2017-Nov-17 11:00N 34°38' E 135°10'3 5.6
2017-Nov-17 10:30N 34°41' E 135°11'0 0.0
2017-Nov-17 09:56N 34°41' E 135°11'2 5.7
2017-Nov-17 09:30N 34°38' E 135°11'3 6.0
2017-Nov-17 09:00N 34°37' E 135°07'4 8.0
2017-Nov-17 08:30N 34°40' E 135°11'1 2.0
2017-Nov-17 07:56N 34°41' E 135°11'0 0.0
2017-Nov-17 07:26N 34°41' E 135°11'0 0.0
2017-Nov-17 06:57N 34°41' E 135°11'2 4.6
2017-Nov-17 06:30N 34°39' E 135°11'1 2.4
2017-Nov-17 06:00N 34°38' E 135°10'3 6.0
2017-Nov-17 05:30N 34°41' E 135°11'0 0.0
2017-Nov-17 04:57N 34°41' E 135°11'2 4.7
2017-Nov-17 04:30N 34°39' E 135°11'4 7.9
2017-Nov-17 04:01N 34°37' E 135°07'3 5.4
2017-Nov-17 03:30N 34°38' E 135°10'3 5.8
2017-Nov-17 03:00N 34°41' E 135°11'0 0.0
2017-Nov-17 02:30N 34°41' E 135°11'0 0.0
2017-Nov-17 02:00N 34°41' E 135°11'0 0.0
2017-Nov-17 01:29N 34°41' E 135°11'0 0.0
2017-Nov-17 00:59N 34°41' E 135°11'0 0.0
2017-Nov-17 00:29N 34°41' E 135°11'0 0.0
2017-Nov-16 23:47N 34°41' E 135°11'0 0.0
2017-Nov-16 23:29N 34°41' E 135°11'0 0.0
2017-Nov-16 22:47N 34°41' E 135°11'0 0.0
2017-Nov-16 21:41N 34°41' E 135°11'0 0.0
2017-Nov-16 21:29N 34°41' E 135°11'0 0.0
2017-Nov-16 20:53N 34°41' E 135°11'0 0.0
2017-Nov-16 20:29N 34°41' E 135°11'0 0.0
2017-Nov-16 19:53N 34°41' E 135°11'0 0.0
2017-Nov-16 19:29N 34°41' E 135°11'0 0.0
2017-Nov-16 18:59N 34°41' E 135°11'0 0.0
2017-Nov-16 18:29N 34°41' E 135°11'0 0.0
2017-Nov-16 17:59N 34°41' E 135°11'0 0.0
2017-Nov-16 17:23N 34°41' E 135°11'0 0.0
2017-Nov-16 16:59N 34°41' E 135°11'0 0.0
2017-Nov-16 16:29N 34°41' E 135°11'0 0.0
2017-Nov-16 15:47N 34°41' E 135°11'0 0.0
2017-Nov-16 15:29N 34°41' E 135°11'0 0.0
2017-Nov-16 14:23N 34°41' E 135°11'0 0.0
2017-Nov-16 13:59N 34°41' E 135°11'0 0.0
2017-Nov-16 13:23N 34°41' E 135°11'0 0.0
2017-Nov-16 12:47N 34°41' E 135°11'0 0.0
2017-Nov-16 12:24N 34°41' E 135°11'3 6.5
2017-Nov-16 12:00N 34°38' E 135°11'4 8.0
2017-Nov-16 11:30N 34°37' E 135°07'3 5.5
2017-Nov-16 11:00N 34°38' E 135°09'3 6.2
2017-Nov-16 10:30N 34°41' E 135°11'0 0.0
2017-Nov-16 09:57N 34°41' E 135°11'2 4.7
2017-Nov-16 09:30N 34°39' E 135°11'4 7.1
2017-Nov-16 09:00N 34°37' E 135°07'4 8.2
2017-Nov-16 08:30N 34°39' E 135°11'1 2.1
2017-Nov-16 07:52N 34°41' E 135°11'0 0.0
2017-Nov-16 07:22N 34°41' E 135°11'0 0.0
2017-Nov-16 06:58N 34°41' E 135°11'3 6.4
2017-Nov-16 06:30N 34°38' E 135°10'0 0.4
2017-Nov-16 06:00N 34°38' E 135°10'3 5.8
2017-Nov-16 05:30N 34°41' E 135°11'0 0.0
2017-Nov-16 04:53N 34°41' E 135°11'2 5.9
2017-Nov-16 04:30N 34°39' E 135°11'4 8.7
2017-Nov-16 04:00N 34°37' E 135°06'3 6.2
2017-Nov-16 03:30N 34°38' E 135°10'3 5.5
2017-Nov-16 03:00N 34°41' E 135°11'0 0.0
2017-Nov-16 02:10N 34°41' E 135°11'0 0.0
2017-Nov-16 01:58N 34°41' E 135°11'0 0.0
2017-Nov-16 01:28N 34°41' E 135°11'0 0.0
2017-Nov-16 00:52N 34°41' E 135°11'0 0.0
2017-Nov-16 00:28N 34°41' E 135°11'0 0.0
2017-Nov-15 23:46N 34°41' E 135°11'0 0.0
2017-Nov-15 23:28N 34°41' E 135°11'0 0.0
2017-Nov-15 22:58N 34°41' E 135°11'0 0.0
2017-Nov-15 22:28N 34°41' E 135°11'0 0.0
2017-Nov-15 21:58N 34°41' E 135°11'0 0.0
2017-Nov-15 21:22N 34°41' E 135°11'0 0.0
2017-Nov-15 20:58N 34°41' E 135°11'0 0.0
2017-Nov-15 20:22N 34°41' E 135°11'0 0.0
2017-Nov-15 19:58N 34°41' E 135°11'0 0.0
2017-Nov-15 19:28N 34°41' E 135°11'0 0.0
2017-Nov-15 18:52N 34°41' E 135°11'0 0.0
2017-Nov-15 18:22N 34°41' E 135°11'0 0.0
2017-Nov-15 17:58N 34°41' E 135°11'0 0.0
2017-Nov-15 17:28N 34°41' E 135°11'0 0.0
2017-Nov-15 16:46N 34°41' E 135°11'0 0.0
2017-Nov-15 16:28N 34°41' E 135°11'0 0.0
2017-Nov-15 15:58N 34°41' E 135°11'0 0.0
2017-Nov-15 15:28N 34°41' E 135°11'0 0.0
2017-Nov-15 14:58N 34°41' E 135°11'0 0.0
2017-Nov-15 14:28N 34°41' E 135°11'0 0.0
2017-Nov-15 13:58N 34°41' E 135°11'0 0.0
2017-Nov-15 13:28N 34°41' E 135°11'0 0.0
2017-Nov-15 12:58N 34°41' E 135°11'0 0.0
2017-Nov-15 12:28N 34°41' E 135°11'2 5.1
2017-Nov-15 12:00N 34°38' E 135°11'4 7.5
2017-Nov-15 11:31N 34°37' E 135°07'2 4.2
2017-Nov-15 11:01N 34°38' E 135°09'3 6.7
2017-Nov-15 10:31N 34°41' E 135°11'0 0.0
2017-Nov-15 10:00N 34°41' E 135°11'2 5.1
2017-Nov-15 09:30N 34°38' E 135°11'4 7.0
2017-Nov-15 09:00N 34°37' E 135°07'4 8.5
2017-Nov-15 08:30N 34°39' E 135°11'1 2.7
2017-Nov-15 07:59N 34°41' E 135°11'0 0.0
2017-Nov-15 07:29N 34°41' E 135°11'0 0.0
2017-Nov-15 06:59N 34°41' E 135°11'2 5.2
2017-Nov-15 06:30N 34°38' E 135°11'1 2.3
2017-Nov-15 06:00N 34°38' E 135°10'3 5.5
2017-Nov-15 05:30N 34°41' E 135°11'0 0.0
2017-Nov-15 04:56N 34°41' E 135°11'2 4.8
2017-Nov-15 04:29N 34°39' E 135°11'4 7.8
2017-Nov-15 04:00N 34°37' E 135°07'2 4.7
2017-Nov-15 03:30N 34°38' E 135°10'3 5.9
2017-Nov-15 03:00N 34°41' E 135°11'0 0.0
2017-Nov-15 02:29N 34°41' E 135°11'0 0.0
2017-Nov-15 01:59N 34°41' E 135°11'0 0.0
2017-Nov-15 01:23N 34°41' E 135°11'0 0.0
2017-Nov-15 00:53N 34°41' E 135°11'0 0.0
2017-Nov-15 00:29N 34°41' E 135°11'0 0.0
2017-Nov-14 23:59N 34°41' E 135°11'0 0.0
2017-Nov-14 23:29N 34°41' E 135°11'0 0.0
2017-Nov-14 22:59N 34°41' E 135°11'0 0.0
2017-Nov-14 22:29N 34°41' E 135°11'0 0.0
2017-Nov-14 21:53N 34°41' E 135°11'0 0.0
2017-Nov-14 21:23N 34°41' E 135°11'0 0.0
2017-Nov-14 20:59N 34°41' E 135°11'0 0.0
2017-Nov-14 20:29N 34°41' E 135°11'0 0.0
2017-Nov-14 19:41N 34°41' E 135°11'0 0.0
2017-Nov-14 19:23N 34°41' E 135°11'0 0.0
2017-Nov-14 18:59N 34°41' E 135°11'0 0.0
2017-Nov-14 18:29N 34°41' E 135°11'0 0.0
2017-Nov-14 17:53N 34°41' E 135°11'0 0.0
2017-Nov-14 17:29N 34°41' E 135°11'0 0.0
2017-Nov-14 16:59N 34°41' E 135°11'0 0.0
2017-Nov-14 16:29N 34°41' E 135°11'0 0.0
2017-Nov-14 15:59N 34°41' E 135°11'0 0.0
2017-Nov-14 15:23N 34°41' E 135°11'0 0.0
2017-Nov-14 14:59N 34°41' E 135°11'0 0.0
2017-Nov-14 14:29N 34°41' E 135°11'0 0.0
2017-Nov-14 13:59N 34°41' E 135°11'0 0.0
2017-Nov-14 13:29N 34°41' E 135°11'0 0.0
2017-Nov-14 12:59N 34°41' E 135°11'0 0.0
2017-Nov-14 12:29N 34°41' E 135°11'2 5.1
2017-Nov-14 12:00N 34°38' E 135°11'4 8.0
2017-Nov-14 11:30N 34°37' E 135°07'3 5.3
2017-Nov-14 11:00N 34°38' E 135°10'3 6.0
2017-Nov-14 10:30N 34°41' E 135°11'0 0.0
2017-Nov-14 09:56N 34°41' E 135°11'3 6.4
2017-Nov-14 09:30N 34°38' E 135°10'3 6.5
2017-Nov-14 09:00N 34°37' E 135°07'4 8.8
2017-Nov-14 08:30N 34°39' E 135°11'1 2.1
2017-Nov-14 07:50N 34°41' E 135°11'0 0.0
2017-Nov-14 07:08N 34°41' E 135°11'0 0.0
2017-Nov-14 06:57N 34°41' E 135°11'3 6.5
2017-Nov-14 06:31N 34°38' E 135°11'1 1.9
2017-Nov-14 06:00N 34°38' E 135°10'3 5.8
2017-Nov-14 05:30N 34°41' E 135°11'0 0.0
2017-Nov-14 04:52N 34°41' E 135°11'2 5.8
2017-Nov-14 04:30N 34°39' E 135°11'4 7.3
2017-Nov-14 04:00N 34°37' E 135°07'2 4.4
2017-Nov-14 03:30N 34°38' E 135°10'3 5.9
2017-Nov-14 03:00N 34°41' E 135°11'0 0.0
2017-Nov-14 02:28N 34°41' E 135°11'0 0.0
2017-Nov-14 01:58N 34°41' E 135°11'0 0.0
2017-Nov-14 01:22N 34°41' E 135°11'0 0.0
2017-Nov-14 00:58N 34°41' E 135°11'0 0.0
2017-Nov-14 00:28N 34°41' E 135°11'0 0.0
2017-Nov-13 23:58N 34°41' E 135°11'0 0.0
2017-Nov-13 23:22N 34°41' E 135°11'0 0.0
2017-Nov-13 22:58N 34°41' E 135°11'0 0.0
2017-Nov-13 22:16N 34°41' E 135°11'0 0.0
2017-Nov-13 21:52N 34°41' E 135°11'0 0.0
2017-Nov-13 01:49N 34°41' E 135°11'0 0.0
2017-Nov-13 01:25N 34°41' E 135°11'0 0.0
2017-Nov-13 00:55N 34°41' E 135°11'0 0.0
2017-Nov-13 00:25N 34°41' E 135°11'0 0.0
2017-Nov-12 23:55N 34°41' E 135°11'0 0.0
2017-Nov-12 23:25N 34°41' E 135°11'0 0.0
2017-Nov-12 22:43N 34°41' E 135°11'0 0.0
2017-Nov-12 22:25N 34°41' E 135°11'0 0.0
2017-Nov-12 21:55N 34°41' E 135°11'0 0.0
2017-Nov-12 21:19N 34°41' E 135°11'0 0.0
2017-Nov-12 20:55N 34°41' E 135°11'0 0.0
2017-Nov-12 20:25N 34°41' E 135°11'0 0.0
2017-Nov-12 19:55N 34°41' E 135°11'0 0.0
2017-Nov-12 19:25N 34°41' E 135°11'0 0.0
2017-Nov-12 18:55N 34°41' E 135°11'0 0.0
2017-Nov-12 18:19N 34°41' E 135°11'0 0.0
2017-Nov-12 17:55N 34°41' E 135°11'0 0.0
2017-Nov-12 17:13N 34°41' E 135°11'0 0.0
2017-Nov-12 16:55N 34°41' E 135°11'0 0.0
2017-Nov-12 16:25N 34°41' E 135°11'0 0.0
2017-Nov-12 15:55N 34°41' E 135°11'0 0.0
2017-Nov-12 15:25N 34°41' E 135°11'0 0.0
2017-Nov-12 14:55N 34°41' E 135°11'0 0.0
2017-Nov-12 14:25N 34°41' E 135°11'0 0.0
2017-Nov-12 13:55N 34°41' E 135°11'0 0.0
2017-Nov-12 13:25N 34°41' E 135°11'0 0.0
2017-Nov-12 12:55N 34°41' E 135°11'0 0.0
2017-Nov-12 12:26N 34°41' E 135°11'3 6.2
2017-Nov-12 12:00N 34°38' E 135°11'3 6.6
2017-Nov-12 11:30N 34°37' E 135°07'2 4.4
2017-Nov-12 11:00N 34°38' E 135°10'3 6.5
2017-Nov-12 10:30N 34°41' E 135°11'0 0.0
2017-Nov-12 09:59N 34°41' E 135°11'0 0.0
2017-Nov-12 09:23N 34°41' E 135°11'0 0.0
2017-Nov-12 08:59N 34°41' E 135°11'3 5.4
2017-Nov-12 08:30N 34°38' E 135°11'4 8.6
2017-Nov-12 08:00N 34°37' E 135°06'0 0.4
2017-Nov-12 07:30N 34°37' E 135°06'4 8.3
2017-Nov-12 07:00N 34°38' E 135°11'3 5.1
2017-Nov-12 06:30N 34°41' E 135°11'0 0.0
2017-Nov-12 05:50N 34°41' E 135°11'0 0.0
2017-Nov-12 05:26N 34°41' E 135°11'0 0.0
2017-Nov-12 04:51N 34°41' E 135°11'2 5.9
2017-Nov-12 04:30N 34°39' E 135°11'3 6.9
2017-Nov-12 04:00N 34°37' E 135°08'2 4.2
2017-Nov-12 03:30N 34°38' E 135°10'3 6.0
2017-Nov-12 03:00N 34°41' E 135°11'0 0.0
2017-Nov-12 02:30N 34°41' E 135°11'0 0.0
2017-Nov-12 01:54N 34°41' E 135°11'0 0.0
2017-Nov-12 01:24N 34°41' E 135°11'0 0.0
2017-Nov-12 01:00N 34°41' E 135°11'0 0.0
2017-Nov-12 00:30N 34°41' E 135°11'0 0.0
2017-Nov-12 00:00N 34°41' E 135°11'0 0.0
2017-Nov-11 23:30N 34°41' E 135°11'0 0.0
2017-Nov-11 23:00N 34°41' E 135°11'0 0.0
2017-Nov-11 22:24N 34°41' E 135°11'0 0.0
2017-Nov-11 21:54N 34°41' E 135°11'0 0.0
2017-Nov-11 21:30N 34°41' E 135°11'0 0.0
2017-Nov-11 21:00N 34°41' E 135°11'0 0.0
2017-Nov-11 20:24N 34°41' E 135°11'0 0.0
2017-Nov-11 19:48N 34°41' E 135°11'0 0.0
2017-Nov-11 19:30N 34°41' E 135°11'0 0.0
2017-Nov-11 19:00N 34°41' E 135°11'0 0.0
2017-Nov-11 18:18N 34°41' E 135°11'0 0.0
2017-Nov-11 18:00N 34°41' E 135°11'0 0.0
2017-Nov-11 17:30N 34°41' E 135°11'0 0.0
2017-Nov-11 17:00N 34°41' E 135°11'0 0.0
2017-Nov-11 16:24N 34°41' E 135°11'0 0.0
2017-Nov-11 16:00N 34°41' E 135°11'0 0.0
2017-Nov-11 15:30N 34°41' E 135°11'0 0.0
2017-Nov-11 15:00N 34°41' E 135°11'0 0.0
2017-Nov-11 14:30N 34°41' E 135°11'0 0.0
2017-Nov-11 13:54N 34°41' E 135°11'0 0.0
2017-Nov-11 13:30N 34°41' E 135°11'0 0.0
2017-Nov-11 12:54N 34°41' E 135°11'0 0.0
2017-Nov-11 12:30N 34°41' E 135°11'3 5.2
2017-Nov-11 12:00N 34°38' E 135°11'3 5.9
2017-Nov-11 11:30N 34°37' E 135°08'4 7.8
2017-Nov-11 11:00N 34°39' E 135°11'1 3.0
2017-Nov-11 10:30N 34°41' E 135°11'0 0.0
2017-Nov-11 09:58N 34°41' E 135°11'2 4.8
2017-Nov-11 09:30N 34°39' E 135°11'3 6.9
2017-Nov-11 09:00N 34°37' E 135°07'4 8.0
2017-Nov-11 08:30N 34°40' E 135°11'1 2.3
2017-Nov-11 07:58N 34°41' E 135°11'0 0.0
2017-Nov-11 07:10N 34°41' E 135°11'0 0.0
2017-Nov-11 06:58N 34°41' E 135°11'2 5.3
2017-Nov-11 06:30N 34°38' E 135°11'0 0.5
2017-Nov-11 06:00N 34°39' E 135°11'2 4.4
2017-Nov-11 05:30N 34°41' E 135°11'0 0.0
2017-Nov-11 05:00N 34°41' E 135°11'2 4.6
2017-Nov-11 04:30N 34°39' E 135°11'4 8.3
2017-Nov-11 04:00N 34°37' E 135°07'3 6.1
2017-Nov-11 03:30N 34°38' E 135°10'3 5.4
2017-Nov-11 02:58N 34°41' E 135°11'0 0.0
2017-Nov-11 02:28N 34°41' E 135°11'0 0.0
2017-Nov-11 01:58N 34°41' E 135°11'0 0.0
2017-Nov-11 01:28N 34°41' E 135°11'0 0.0
2017-Nov-11 00:58N 34°41' E 135°11'0 0.0
2017-Nov-11 00:28N 34°41' E 135°11'0 0.0
2017-Nov-10 23:46N 34°41' E 135°11'0 0.0
2017-Nov-10 23:28N 34°41' E 135°11'0 0.0
2017-Nov-10 22:58N 34°41' E 135°11'0 0.0
2017-Nov-10 22:28N 34°41' E 135°11'0 0.0
2017-Nov-10 21:58N 34°41' E 135°11'0 0.0
2017-Nov-10 21:28N 34°41' E 135°11'0 0.0
2017-Nov-10 20:58N 34°41' E 135°11'0 0.0
2017-Nov-10 20:28N 34°41' E 135°11'0 0.0
2017-Nov-10 19:58N 34°41' E 135°11'0 0.0
2017-Nov-10 19:28N 34°41' E 135°11'0 0.0
2017-Nov-10 18:58N 34°41' E 135°11'0 0.0
2017-Nov-10 18:22N 34°41' E 135°11'0 0.0
2017-Nov-10 17:46N 34°41' E 135°11'0 0.0
2017-Nov-10 17:28N 34°41' E 135°11'0 0.0
2017-Nov-10 16:52N 34°41' E 135°11'0 0.0
2017-Nov-10 16:28N 34°41' E 135°11'0 0.0
2017-Nov-10 15:58N 34°41' E 135°11'0 0.0
2017-Nov-10 15:28N 34°41' E 135°11'0 0.0
2017-Nov-10 14:58N 34°41' E 135°11'0 0.0
2017-Nov-10 14:28N 34°41' E 135°11'0 0.0
2017-Nov-10 13:58N 34°41' E 135°11'0 0.0
2017-Nov-10 13:10N 34°41' E 135°11'0 0.0
2017-Nov-10 12:58N 34°41' E 135°11'0 0.0
2017-Nov-10 12:28N 34°41' E 135°11'2 5.1
2017-Nov-10 12:01N 34°38' E 135°11'4 7.8
2017-Nov-10 11:30N 34°37' E 135°07'3 5.0
2017-Nov-10 11:00N 34°38' E 135°09'3 6.1
2017-Nov-10 10:30N 34°41' E 135°11'0 0.0
2017-Nov-10 09:54N 34°41' E 135°11'3 6.4
2017-Nov-10 09:30N 34°38' E 135°11'3 6.9
2017-Nov-10 09:00N 34°37' E 135°07'4 8.5
2017-Nov-10 08:31N 34°39' E 135°11'1 2.9
2017-Nov-10 08:01N 34°41' E 135°11'0 0.0
2017-Nov-10 07:29N 34°41' E 135°11'0 0.0
2017-Nov-10 06:54N 34°41' E 135°11'3 6.4
2017-Nov-10 06:30N 34°38' E 135°11'1 2.5
2017-Nov-10 06:00N 34°38' E 135°09'3 6.0
2017-Nov-10 05:29N 34°41' E 135°11'0 0.0
2017-Nov-10 04:50N 34°41' E 135°11'2 5.5
2017-Nov-10 04:31N 34°39' E 135°11'3 6.9
2017-Nov-10 04:00N 34°37' E 135°08'2 3.5
2017-Nov-10 03:30N 34°38' E 135°09'3 5.9
2017-Nov-10 03:00N 34°41' E 135°11'0 0.0
2017-Nov-10 02:31N 34°41' E 135°11'0 0.0
2017-Nov-10 02:01N 34°41' E 135°11'0 0.0
2017-Nov-10 01:30N 34°41' E 135°11'0 0.0
2017-Nov-10 00:58N 34°41' E 135°11'  

Dump ship's entire track history